Time;durP1;ratioP1;P1;durP2;ratioP2;P2;SDS_P1;SDS_P2;PMS_P1;PMS_P2;Temp;Humidity;BMP_temperature;BMP_pressure;BME280_temperature;BME280_humidity;BME280_pressure;Samples;Min_cycle;Max_cycle;Signal;HPM_P1;HPM_P2
2022/05/20 00:01:26;;;;;;;8.63;4.75;;;;;;;22.45;61.23;96325.19;4990048;28;20698;-91
2022/05/20 00:03:58;;;;;;;4.75;2.70;;;;;;;22.49;60.66;96322.88;4990965;28;20196;-91
2022/05/20 00:06:24;;;;;;;3.67;3.10;;;;;;;22.53;61.13;96314.28;4990438;28;20258;-90
2022/05/20 00:08:51;;;;;;;6.70;3.05;;;;;;;22.58;61.02;96310.97;4989842;28;20223;-91
2022/05/20 00:11:17;;;;;;;6.20;2.97;;;;;;;22.56;60.59;96313.81;4990584;28;20191;-91
2022/05/20 00:13:47;;;;;;;7.38;2.97;;;;;;;22.54;61.21;96322.97;4989568;28;20227;-91
2022/05/20 00:16:15;;;;;;;6.78;3.03;;;;;;;22.53;60.69;96324.78;4989945;28;20635;-91
2022/05/20 00:18:42;;;;;;;3.30;2.80;;;;;;;22.47;60.91;96324.94;4988550;28;20751;-91
2022/05/20 00:21:09;;;;;;;6.68;3.00;;;;;;;22.43;60.97;96326.44;4990610;28;20206;-90
2022/05/20 00:23:36;;;;;;;5.88;3.33;;;;;;;22.36;61.23;96322.09;4990216;28;20627;-90
2022/05/20 00:26:18;;;;;;;3.05;2.72;;;;;;;22.36;61.75;96319.47;4983017;28;20289;-91
2022/05/20 00:28:48;;;;;;;6.70;2.90;;;;;;;22.33;62.35;96316.53;4988394;28;20309;-91
2022/05/20 00:31:18;;;;;;;3.40;3.10;;;;;;;22.24;62.50;96320.56;4990766;28;20199;-91
2022/05/20 00:33:44;;;;;;;4.78;3.20;;;;;;;22.23;62.03;96316.31;4988780;28;20207;-91
2022/05/20 00:36:11;;;;;;;4.40;2.92;;;;;;;22.18;61.86;96311.78;4990776;28;20723;-91
2022/05/20 00:38:37;;;;;;;3.00;2.80;;;;;;;22.20;61.37;96307.09;4988323;28;20319;-91
2022/05/20 00:41:05;;;;;;;5.25;2.78;;;;;;;22.19;61.64;96309.94;4982289;28;20207;-90
2022/05/20 00:43:58;;;;;;;4.90;2.97;;;;;;;22.17;61.65;96297.06;4989561;28;20291;-90
2022/05/20 00:46:28;;;;;;;3.50;2.90;;;;;;;22.09;61.41;96291.38;4984626;28;20717;-90
2022/05/20 00:49:04;;;;;;;3.47;2.60;;;;;;;22.13;60.85;96292.53;4989958;28;20238;-91
2022/05/20 00:51:34;;;;;;;3.22;2.90;;;;;;;22.10;61.26;96291.16;4988998;28;20579;-90
2022/05/20 00:54:04;;;;;;;3.45;2.95;;;;;;;22.00;61.76;96278.63;4990427;28;20204;-91
2022/05/20 00:56:36;;;;;;;7.05;3.03;;;;;;;21.97;61.29;96286.91;4989427;28;20200;-91
2022/05/20 00:59:05;;;;;;;6.07;3.13;;;;;;;21.92;61.52;96286.03;4987904;28;20308;-91
2022/05/20 01:01:34;;;;;;;3.40;2.83;;;;;;;22.00;60.67;96283.06;4988644;28;20666;-91
2022/05/20 01:04:02;;;;;;;5.10;2.85;;;;;;;21.96;60.66;96276.66;4990139;28;20683;-91
2022/05/20 01:06:29;;;;;;;3.22;2.63;;;;;;;22.02;60.32;96279.19;4986525;28;20238;-91
2022/05/20 01:08:58;;;;;;;5.50;2.88;;;;;;;22.04;60.36;96279.75;4969960;28;20250;-91
2022/05/20 01:11:25;;;;;;;2.83;2.58;;;;;;;22.03;60.69;96280.00;4985172;28;20207;-91
2022/05/20 01:13:55;;;;;;;3.88;3.00;;;;;;;22.00;60.65;96270.75;4990097;28;20203;-91
2022/05/20 01:16:21;;;;;;;5.88;2.95;;;;;;;22.03;60.50;96270.28;4989221;28;20203;-90
2022/05/20 01:18:53;;;;;;;3.42;2.75;;;;;;;22.04;60.59;96276.34;4988691;28;20311;-90
2022/05/20 01:21:22;;;;;;;3.38;3.08;;;;;;;21.99;60.85;96256.00;4988635;28;20258;-90
2022/05/20 01:23:50;;;;;;;4.93;3.05;;;;;;;21.93;60.66;96253.53;4989764;28;20655;-91
2022/05/20 01:26:17;;;;;;;7.13;3.08;;;;;;;21.91;60.64;96253.75;4989271;28;20283;-91
2022/05/20 01:28:44;;;;;;;4.88;3.30;;;;;;;21.93;60.46;96251.72;4988969;28;20234;-90
2022/05/20 01:31:13;;;;;;;4.20;2.97;;;;;;;21.88;60.69;96253.41;4989795;28;20203;-91
2022/05/20 01:33:42;;;;;;;6.40;3.30;;;;;;;21.91;60.75;96251.13;4989181;28;20258;-91
2022/05/20 01:36:11;;;;;;;3.63;2.92;;;;;;;21.86;60.63;96250.22;4989201;28;20570;-91
2022/05/20 01:38:38;;;;;;;3.15;2.65;;;;;;;21.91;60.00;96252.97;4989160;28;20698;-91
2022/05/20 01:41:09;;;;;;;3.60;2.88;;;;;;;21.92;60.09;96244.06;4989090;28;20270;-90
2022/05/20 01:43:45;;;;;;;2.85;2.58;;;;;;;21.89;60.35;96247.94;4989056;28;20664;-91
2022/05/20 01:46:20;;;;;;;4.45;2.55;;;;;;;21.85;60.24;96251.25;4982981;28;20238;-91
2022/05/20 01:48:51;;;;;;;2.97;2.70;;;;;;;21.82;60.06;96244.66;4988412;28;20601;-91
2022/05/20 01:51:23;;;;;;;3.20;2.20;;;;;;;21.73;60.06;96235.56;4989701;28;20207;-90
2022/05/20 01:53:55;;;;;;;5.65;2.63;;;;;;;21.81;60.34;96231.75;4988995;28;20579;-90
2022/05/20 01:56:29;;;;;;;3.00;2.50;;;;;;;21.77;60.13;96235.88;4987796;28;20207;-91
2022/05/20 01:59:02;;;;;;;3.33;2.60;;;;;;;21.76;60.40;96236.91;4988262;28;20233;-90
2022/05/20 02:01:36;;;;;;;4.38;2.60;;;;;;;21.66;60.69;96225.19;4989499;28;20199;-91
2022/05/20 02:04:06;;;;;;;3.35;2.42;;;;;;;21.69;60.29;96224.72;4989219;28;20207;-91
2022/05/20 02:06:38;;;;;;;2.65;2.45;;;;;;;21.77;59.92;96215.69;4988566;28;20204;-91
2022/05/20 02:09:08;;;;;;;2.22;2.13;;;;;;;21.77;60.06;96213.06;4981340;28;20318;-90
2022/05/20 02:11:40;;;;;;;2.63;2.25;;;;;;;21.74;60.10;96212.75;4991879;28;20204;-91
2022/05/20 02:14:13;;;;;;;2.72;2.33;;;;;;;21.76;59.87;96211.47;4984917;28;20656;-90
2022/05/20 02:16:46;;;;;;;2.40;2.20;;;;;;;21.74;59.88;96205.69;4992342;28;20213;-91
2022/05/20 02:19:18;;;;;;;2.45;2.25;;;;;;;21.73;60.28;96205.94;4990968;28;20298;-90
2022/05/20 02:21:54;;;;;;;2.90;2.28;;;;;;;21.74;60.25;96202.28;4992045;28;20254;-90
2022/05/20 02:24:23;;;;;;;2.47;2.28;;;;;;;21.74;60.14;96197.84;4993249;28;20195;-91
2022/05/20 02:27:05;;;;;;;4.32;2.50;;;;;;;21.66;60.21;96206.84;4991235;28;20204;-91
2022/05/20 02:29:38;;;;;;;3.67;2.53;;;;;;;21.58;60.86;96201.13;4991462;28;20278;-90
2022/05/20 02:32:12;;;;;;;2.40;2.20;;;;;;;21.59;60.80;96194.88;4992215;28;20211;-91
2022/05/20 02:34:41;;;;;;;3.20;2.60;;;;;;;21.52;60.87;96199.47;4992001;28;20574;-90
2022/05/20 02:37:24;;;;;;;2.60;2.40;;;;;;;21.47;61.12;96202.75;4992868;28;20214;-90
2022/05/20 02:39:51;;;;;;;3.33;2.83;;;;;;;21.52;60.81;96197.63;4990326;28;20598;-91
2022/05/20 02:42:19;;;;;;;3.08;2.60;;;;;;;21.53;61.06;96201.84;4991550;28;20214;-91
2022/05/20 02:44:48;;;;;;;2.55;2.33;;;;;;;21.54;60.70;96202.66;4991686;28;20223;-91
2022/05/20 02:47:15;;;;;;;2.55;2.15;;;;;;;21.62;60.39;96203.06;4992753;28;20227;-90
2022/05/20 02:49:42;;;;;;;2.65;2.10;;;;;;;21.58;60.65;96194.06;4990622;28;20284;-90
2022/05/20 02:52:09;;;;;;;2.47;2.28;;;;;;;21.55;60.92;96202.38;4991506;28;20195;-90
2022/05/20 02:54:36;;;;;;;2.88;2.10;;;;;;;21.55;60.97;96197.16;4991324;28;20202;-90
2022/05/20 02:57:03;;;;;;;2.67;2.08;;;;;;;21.54;61.06;96197.41;4992475;28;20191;-91
2022/05/20 03:05:03;;;;;;;3.53;2.47;;;;;;;21.45;60.70;96199.56;4991480;28;20274;-91
2022/05/20 03:07:29;;;;;;;2.28;1.90;;;;;;;21.48;60.61;96193.06;4992495;28;20234;-90
2022/05/20 03:10:00;;;;;;;2.42;2.13;;;;;;;21.47;60.63;96194.91;4990496;28;20679;-91
2022/05/20 03:12:27;;;;;;;3.38;2.15;;;;;;;21.46;60.67;96201.16;4990101;28;20235;-90
2022/05/20 03:14:55;;;;;;;2.30;2.10;;;;;;;21.41;61.25;96197.63;4992140;28;20195;-91
2022/05/20 03:17:22;;;;;;;2.88;2.10;;;;;;;21.44;60.66;96199.78;4991788;28;20272;-89
2022/05/20 03:19:48;;;;;;;2.90;2.17;;;;;;;21.50;60.36;96191.03;4990901;28;20235;-91
2022/05/20 03:22:15;;;;;;;2.70;2.22;;;;;;;21.47;60.43;96187.03;4990240;28;20200;-90
2022/05/20 03:24:42;;;;;;;3.35;2.33;;;;;;;21.48;60.18;96196.50;4992086;28;20219;-91
2022/05/20 03:27:08;;;;;;;3.78;2.15;;;;;;;21.44;60.28;96194.56;4990955;28;20286;-91
2022/05/20 03:29:37;;;;;;;2.72;2.15;;;;;;;21.46;60.20;96189.88;4991015;28;20234;-90
2022/05/20 03:32:06;;;;;;;2.80;2.00;;;;;;;21.50;59.92;96194.44;4986833;28;20203;-91
2022/05/20 03:34:32;;;;;;;2.50;2.00;;;;;;;21.56;59.63;96190.88;4991153;28;20195;-90
2022/05/20 03:36:59;;;;;;;1.95;1.85;;;;;;;21.61;59.51;96190.19;4991491;28;20680;-91
2022/05/20 03:39:26;;;;;;;2.42;2.00;;;;;;;21.60;59.43;96196.47;4990902;28;20237;-91
2022/05/20 03:41:53;;;;;;;4.05;2.40;;;;;;;21.57;59.42;96192.47;4990486;28;20255;-90
2022/05/20 03:44:20;;;;;;;2.08;1.88;;;;;;;21.61;59.46;96198.06;4991579;28;20207;-90
2022/05/20 03:46:49;;;;;;;2.10;2.00;;;;;;;21.57;59.46;96195.09;4987465;28;20214;-91
2022/05/20 03:49:18;;;;;;;2.08;1.98;;;;;;;21.53;59.50;96196.59;4990198;28;20223;-90
2022/05/20 03:51:47;;;;;;;2.28;2.00;;;;;;;21.45;59.31;96202.19;4988279;28;20203;-91
2022/05/20 03:54:15;;;;;;;2.50;1.90;;;;;;;21.51;59.44;96200.47;4991443;28;20196;-91
2022/05/20 03:56:41;;;;;;;2.10;1.90;;;;;;;21.52;59.33;96200.25;4990367;28;20238;-91
2022/05/20 03:59:09;;;;;;;2.20;2.00;;;;;;;21.60;59.73;96201.72;4988921;28;20705;-86
2022/05/20 04:04:22;;;;;;;2.75;2.20;;;;;;;21.70;58.81;96207.97;4982325;28;20689;-87
2022/05/20 04:06:53;;;;;;;3.38;2.40;;;;;;;21.71;59.32;96209.56;4991255;28;20195;-86
2022/05/20 04:09:19;;;;;;;3.45;2.17;;;;;;;21.78;59.04;96200.75;4989672;28;20237;-87
2022/05/20 04:11:46;;;;;;;2.80;2.33;;;;;;;21.84;58.68;96202.47;4989517;28;20217;-86
2022/05/20 04:14:12;;;;;;;2.13;2.00;;;;;;;21.82;58.82;96205.31;4991040;28;20202;-86
2022/05/20 04:16:39;;;;;;;3.80;2.30;;;;;;;21.84;58.87;96210.34;4991131;28;20203;-86
2022/05/20 04:19:05;;;;;;;2.78;2.30;;;;;;;21.79;58.86;96212.84;4989512;28;20271;-87
2022/05/20 04:21:33;;;;;;;2.50;2.30;;;;;;;21.85;58.80;96202.25;4986734;28;20223;-86
2022/05/20 04:23:59;;;;;;;2.50;2.30;;;;;;;21.88;58.77;96207.03;4988985;28;20207;-86
2022/05/20 04:26:26;;;;;;;5.50;2.95;;;;;;;21.93;58.67;96211.56;4990601;28;20879;-86
2022/05/20 04:28:55;;;;;;;5.35;2.10;;;;;;;21.97;58.53;96207.44;4989411;28;20261;-86
2022/05/20 04:31:21;;;;;;;2.47;2.20;;;;;;;21.97;58.61;96210.88;4990540;28;20698;-86
2022/05/20 04:33:47;;;;;;;3.03;2.78;;;;;;;22.02;58.19;96207.56;4989376;28;20288;-86
2022/05/20 04:36:14;;;;;;;2.65;2.10;;;;;;;22.11;58.22;96215.88;4989872;28;20207;-86
2022/05/20 04:38:42;;;;;;;3.70;2.33;;;;;;;22.16;58.08;96223.84;4988531;28;20230;-86
2022/05/20 04:46:58;;;;;;;5.95;2.35;;;;;;;22.88;58.49;96226.75;4985670;28;20242;-86
2022/05/20 04:49:24;;;;;;;3.13;2.20;;;;;;;23.04;58.04;96224.13;4988843;28;20627;-87
2022/05/20 04:51:51;;;;;;;2.50;2.30;;;;;;;23.03;56.69;96222.53;4990271;28;20600;-87
2022/05/20 04:57:02;;;;;;;2.53;1.90;;;;;;;23.13;56.55;96227.13;4965893;28;20259;-86
2022/05/20 04:59:28;;;;;;;2.40;2.20;;;;;;;23.06;55.65;96227.31;4984693;28;20227;-86
2022/05/20 05:01:55;;;;;;;2.35;2.15;;;;;;;22.94;55.72;96223.94;4985218;28;20227;-86
2022/05/20 05:04:34;;;;;;;2.28;2.08;;;;;;;22.84;56.11;96229.03;4984570;28;20863;-87
2022/05/20 05:07:23;;;;;;;4.88;2.00;;;;;;;22.82;56.42;96222.44;4989037;28;20202;-87
2022/05/20 05:09:59;;;;;;;2.47;2.22;;;;;;;22.86;56.30;96226.19;4991057;28;20223;-86
2022/05/20 05:12:30;;;;;;;3.55;2.53;;;;;;;22.87;55.98;96219.91;4988644;28;20203;-87
2022/05/20 05:15:11;;;;;;;3.70;2.25;;;;;;;22.85;56.11;96227.22;4989688;28;20207;-86
2022/05/20 05:21:21;;;;;;;3.10;2.25;;;;;;;22.95;55.77;96225.53;4988517;28;20654;-86
2022/05/20 05:31:20;;;;;;;6.70;2.10;;;;;;;23.22;55.30;96224.91;5021520;23;20294;-87
2022/05/20 05:33:58;;;;;;;2.58;2.28;;;;;;;23.34;54.59;96217.72;4926452;29;20293;-87
2022/05/20 05:37:04;;;;;;;3.38;2.25;;;;;;;23.39;54.86;96223.06;4928620;29;20209;-86
2022/05/20 05:42:22;;;;;;;3.22;2.38;;;;;;;23.48;54.79;96223.41;4900748;29;20238;-87
2022/05/20 05:45:05;;;;;;;2.33;2.10;;;;;;;23.47;54.58;96217.41;4911828;29;20213;-86
2022/05/20 05:47:59;;;;;;;2.88;2.33;;;;;;;23.50;54.90;96223.97;4913783;29;20265;-86
2022/05/20 05:54:44;;;;;;;4.45;2.30;;;;;;;23.65;54.57;96213.72;4879998;29;21236;-86
2022/05/20 06:01:29;;;;;;;;;;;;;;;;;;;;;
2022/05/20 06:04:17;;;;;;;2.90;2.60;;;;;;;23.81;53.78;96214.69;4992581;28;20215;-87
2022/05/20 06:06:54;;;;;;;;;;;;;;;;;;;;;
2022/05/20 06:09:28;;;;;;;2.30;2.10;;;;;;;23.65;52.91;96221.59;4991018;28;20231;-86
2022/05/20 06:15:11;;;;;;;4.65;2.70;;;;;;;23.86;53.13;96223.44;4991205;28;20207;-86
2022/05/20 06:17:39;;;;;;;5.65;2.95;;;;;;;23.99;53.18;96225.72;4992560;28;20674;-87
2022/05/20 06:20:25;;;;;;;3.78;2.97;;;;;;;24.07;53.08;96225.25;4991416;28;20223;-87
2022/05/20 06:23:30;;;;;;;2.55;2.35;;;;;;;24.04;52.37;96223.16;4992223;28;20203;-86
2022/05/20 06:31:55;;;;;;;4.55;2.67;;;;;;;24.22;51.76;96223.88;5022764;23;20301;-87
2022/05/20 06:34:22;;;;;;;3.30;2.38;;;;;;;24.24;51.19;96216.56;4953609;28;20264;-86
2022/05/20 06:43:47;;;;;;;2.28;2.08;;;;;;;24.37;50.85;96222.22;4893430;29;20318;-87
2022/05/20 06:46:34;;;;;;;3.15;2.53;;;;;;;24.48;51.07;96220.47;4894381;29;20614;-87
2022/05/20 06:52:29;;;;;;;3.78;2.78;;;;;;;24.70;51.39;96218.59;4843226;29;20213;-86
2022/05/20 06:55:05;;;;;;;5.00;2.58;;;;;;;24.77;51.76;96227.09;4917744;29;20205;-87
2022/05/20 06:57:31;;;;;;;5.30;2.58;;;;;;;24.88;51.68;96214.78;4935270;29;20216;-87
2022/05/20 07:00:35;;;;;;;3.35;2.45;;;;;;;24.90;51.61;96215.31;4946057;28;20232;-86
2022/05/20 07:10:10;;;;;;;3.30;2.65;;;;;;;25.02;50.99;96205.44;4777887;29;20257;-86
2022/05/20 07:19:01;;;;;;;2.75;2.50;;;;;;;25.21;50.81;96199.78;4859181;29;20680;-83
2022/05/20 07:21:27;;;;;;;4.57;2.33;;;;;;;25.32;50.56;96207.50;4910278;29;20224;-84
2022/05/20 07:23:54;;;;;;;5.50;2.58;;;;;;;25.34;49.48;96202.78;4960926;28;20232;-83
2022/05/20 07:26:22;;;;;;;3.42;2.35;;;;;;;25.50;49.50;96200.22;4951410;28;20209;-83
2022/05/20 07:28:48;;;;;;;2.70;2.42;;;;;;;25.58;48.98;96197.09;4942602;28;20241;-84
2022/05/20 07:31:17;;;;;;;3.58;2.58;;;;;;;25.68;48.63;96195.34;4942094;29;20206;-84
2022/05/20 07:33:44;;;;;;;2.90;2.40;;;;;;;25.75;47.89;96192.47;4941010;29;20617;-83
2022/05/20 07:36:10;;;;;;;3.30;2.60;;;;;;;25.88;47.79;96192.00;4942588;29;20237;-85
2022/05/20 07:38:36;;;;;;;2.83;2.50;;;;;;;25.96;46.88;96191.50;4940806;28;20729;-83
2022/05/20 07:41:03;;;;;;;3.78;2.47;;;;;;;26.04;46.21;96198.09;4939990;29;20236;-85
2022/05/20 07:43:31;;;;;;;3.38;2.60;;;;;;;26.17;46.74;96187.06;4943925;29;20205;-83
2022/05/20 07:45:57;;;;;;;3.72;2.78;;;;;;;26.28;46.04;96185.25;4938665;29;20306;-84
2022/05/20 07:48:24;;;;;;;2.97;2.60;;;;;;;26.43;45.25;96193.22;4927555;28;20233;-84
2022/05/20 07:50:54;;;;;;;3.78;2.40;;;;;;;26.55;44.77;96182.44;4939586;29;20217;-84
2022/05/20 07:53:23;;;;;;;2.90;2.60;;;;;;;26.64;44.28;96194.84;4940618;29;20206;-84
2022/05/20 07:55:54;;;;;;;3.15;2.85;;;;;;;26.71;44.75;96197.22;4940836;29;20225;-84
2022/05/20 07:58:25;;;;;;;2.85;2.40;;;;;;;26.80;44.26;96199.06;4939136;28;20229;-84
2022/05/20 08:00:54;;;;;;;2.70;2.50;;;;;;;26.87;43.77;96198.81;4938030;29;20264;-83
2022/05/20 08:06:02;;;;;;;4.57;4.18;;;;;;;27.07;44.24;96193.56;4939408;29;20203;-83
2022/05/20 08:08:28;;;;;;;3.30;2.92;;;;;;;27.12;43.63;96190.91;4933279;28;20229;-82
2022/05/20 08:10:55;;;;;;;3.78;2.60;;;;;;;27.23;43.21;96185.59;4934459;29;20292;-84
2022/05/20 08:13:22;;;;;;;2.88;2.63;;;;;;;27.28;43.09;96185.59;4935985;29;20202;-84
2022/05/20 08:15:49;;;;;;;3.60;2.45;;;;;;;27.43;42.42;96181.06;4938931;29;20232;-84
2022/05/20 08:18:17;;;;;;;3.90;2.67;;;;;;;27.56;41.46;96177.06;4938307;28;20662;-84
2022/05/20 08:20:44;;;;;;;5.57;2.53;;;;;;;27.57;40.88;96178.69;4937162;29;20304;-82
2022/05/20 08:23:11;;;;;;;3.35;2.72;;;;;;;27.66;38.44;96182.38;4938561;29;20800;-83
2022/05/20 08:25:37;;;;;;;4.00;2.60;;;;;;;27.78;38.20;96179.41;4937381;29;20205;-83
2022/05/20 08:28:04;;;;;;;4.32;2.30;;;;;;;27.93;38.27;96163.44;4929253;28;20237;-84
2022/05/20 08:30:30;;;;;;;4.72;2.78;;;;;;;28.13;38.82;96160.69;4936512;29;20233;-84
2022/05/20 08:32:57;;;;;;;2.50;2.30;;;;;;;28.24;38.32;96168.63;4937469;29;20198;-83
2022/05/20 08:35:26;;;;;;;3.28;2.83;;;;;;;28.22;37.74;96160.16;4937926;29;20202;-83
2022/05/20 08:37:53;;;;;;;3.67;2.40;;;;;;;28.28;37.59;96151.91;4936595;28;20214;-84
2022/05/20 08:40:25;;;;;;;3.20;2.47;;;;;;;28.43;38.02;96157.09;4937187;29;20237;-84
2022/05/20 08:42:54;;;;;;;5.45;3.10;;;;;;;28.50;37.74;96156.78;4932179;29;20229;-84
2022/05/20 08:45:37;;;;;;;3.65;2.80;;;;;;;28.43;37.55;96148.38;4941128;29;20209;-83
2022/05/20 08:48:06;;;;;;;3.78;2.67;;;;;;;28.39;37.19;96142.03;4930546;28;20293;-85
2022/05/20 08:50:42;;;;;;;4.13;2.65;;;;;;;28.50;37.38;96140.88;4944012;29;20725;-84
2022/05/20 08:53:26;;;;;;;4.45;2.90;;;;;;;28.65;37.29;96138.13;4932996;29;20225;-86
2022/05/20 08:55:52;;;;;;;4.40;2.40;;;;;;;28.71;37.58;96144.16;4938065;29;20209;-84
2022/05/20 08:58:22;;;;;;;5.05;3.00;;;;;;;28.85;38.14;96137.22;4930516;28;20287;-84
2022/05/20 09:00:48;;;;;;;3.00;2.70;;;;;;;29.01;37.81;96141.28;4938197;29;20217;-83
2022/05/20 09:03:16;;;;;;;3.00;2.70;;;;;;;29.18;37.57;96144.31;4939463;29;20240;-84
2022/05/20 09:05:46;;;;;;;3.30;2.40;;;;;;;29.20;36.91;96128.13;4939478;29;20234;-85
2022/05/20 09:08:25;;;;;;;3.90;2.83;;;;;;;29.38;37.47;96137.22;4938275;28;20244;-83
2022/05/20 09:10:54;;;;;;;4.47;2.88;;;;;;;29.53;36.89;96132.53;4939483;29;20243;-84
2022/05/20 09:13:23;;;;;;;4.68;3.17;;;;;;;29.61;36.17;96135.66;4937426;29;20202;-83
2022/05/20 09:15:58;;;;;;;3.72;3.08;;;;;;;29.70;35.94;96129.41;4938473;29;20261;-85
2022/05/20 09:18:34;;;;;;;3.33;2.70;;;;;;;29.51;36.12;96134.69;4935498;28;20232;-84
2022/05/20 09:21:02;;;;;;;5.05;2.80;;;;;;;29.54;36.44;96122.72;4930947;29;20202;-84
2022/05/20 09:23:28;;;;;;;3.70;2.80;;;;;;;29.62;36.60;96122.09;4933762;29;20224;-84
2022/05/20 09:26:03;;;;;;;5.05;3.03;;;;;;;29.69;36.13;96122.53;4938992;29;20209;-84
2022/05/20 09:28:34;;;;;;;3.95;2.90;;;;;;;29.87;36.23;96126.28;4937044;28;20758;-85
2022/05/20 09:31:25;;;;;;;3.58;2.47;;;;;;;30.20;35.98;96113.94;4939091;29;20213;-83
2022/05/20 09:33:56;;;;;;;3.13;2.85;;;;;;;30.33;35.07;96117.72;4939400;29;20209;-84
2022/05/20 09:36:35;;;;;;;3.30;2.72;;;;;;;30.49;34.90;96109.22;4939344;29;20205;-84
2022/05/20 09:39:10;;;;;;;5.55;2.88;;;;;;;30.64;35.35;96113.50;4939121;28;20249;-85
2022/05/20 09:41:45;;;;;;;3.50;3.20;;;;;;;30.77;35.72;96102.16;4939947;29;20661;-84
2022/05/20 09:44:13;;;;;;;5.80;5.30;;;;;;;30.82;35.49;96103.91;4938962;29;20724;-84
2022/05/20 09:46:43;;;;;;;7.07;3.55;;;;;;;30.83;35.12;96102.81;4938294;29;20684;-84
2022/05/20 09:49:16;;;;;;;4.40;3.45;;;;;;;30.89;34.61;96097.13;4937363;28;20260;-85
2022/05/20 09:51:50;;;;;;;4.90;2.83;;;;;;;31.05;34.21;96092.31;4938242;29;20213;-84
2022/05/20 09:54:22;;;;;;;4.68;3.20;;;;;;;31.10;33.58;96091.44;4938854;29;20232;-84
2022/05/20 09:57:02;;;;;;;4.53;3.30;;;;;;;31.15;32.89;96092.19;4938720;29;20249;-84
2022/05/20 09:59:36;;;;;;;3.80;3.25;;;;;;;31.23;33.68;96080.06;4938485;28;20261;-84
2022/05/20 10:02:07;;;;;;;3.63;2.90;;;;;;;31.39;34.11;96069.88;4939010;29;20248;-83
2022/05/20 10:04:44;;;;;;;3.45;3.15;;;;;;;31.47;33.15;96069.19;4939939;29;20209;-84
2022/05/20 10:07:17;;;;;;;4.47;2.92;;;;;;;31.49;33.23;96072.34;4939307;29;20209;-84
2022/05/20 10:09:52;;;;;;;3.60;2.90;;;;;;;31.56;32.64;96062.06;4937901;28;20237;-85
2022/05/20 10:12:27;;;;;;;4.22;3.00;;;;;;;31.71;32.68;96069.00;4938313;29;20261;-84
2022/05/20 10:15:01;;;;;;;5.28;2.95;;;;;;;31.73;33.32;96062.28;4939847;29;20205;-84
2022/05/20 10:17:40;;;;;;;4.28;3.03;;;;;;;31.56;32.35;96062.88;4939188;29;20205;-86
2022/05/20 10:20:13;;;;;;;3.30;2.88;;;;;;;31.60;33.27;96060.41;4937479;29;20711;-84
2022/05/20 10:22:53;;;;;;;4.90;2.80;;;;;;;31.76;32.66;96051.03;4938756;29;20240;-85
2022/05/20 10:25:29;;;;;;;3.75;3.00;;;;;;;31.89;32.53;96044.88;4938466;29;20209;-85
2022/05/20 10:28:02;;;;;;;5.40;3.30;;;;;;;32.01;32.43;96039.00;4937628;28;20209;-82
2022/05/20 10:33:24;;;;;;;4.25;3.25;;;;;;;32.10;31.82;96041.75;4941738;29;20208;-85
2022/05/20 10:36:09;;;;;;;4.07;3.20;;;;;;;32.16;31.92;96041.31;4941656;29;20242;-84
2022/05/20 10:39:00;;;;;;;6.47;3.40;;;;;;;32.21;31.11;96022.56;4941617;28;20229;-84
2022/05/20 10:41:48;;;;;;;3.58;3.08;;;;;;;32.34;31.25;96028.91;4942373;29;20210;-85
2022/05/20 10:50:19;;;;;;;3.70;2.97;;;;;;;32.51;30.83;96009.59;4940677;29;20312;-84
2022/05/20 10:53:01;;;;;;;5.57;3.20;;;;;;;32.32;30.33;96004.47;4941012;29;20212;-84
2022/05/20 10:55:42;;;;;;;4.00;3.00;;;;;;;32.43;30.41;96005.78;4940859;29;20209;-84
2022/05/20 10:58:48;;;;;;;5.35;3.30;;;;;;;32.56;31.28;96002.22;4940027;28;20229;-84
2022/05/20 11:01:22;;;;;;;3.17;2.83;;;;;;;32.63;30.19;96001.00;4940962;29;20232;-85
2022/05/20 11:04:11;;;;;;;4.85;3.22;;;;;;;32.58;30.71;96002.72;4939147;29;20230;-84
2022/05/20 11:06:52;;;;;;;3.65;3.17;;;;;;;32.55;29.70;95995.31;4929647;29;20264;-84
2022/05/20 11:09:26;;;;;;;3.75;3.30;;;;;;;32.63;30.27;95996.47;4938120;28;20680;-84
2022/05/20 11:12:01;;;;;;;7.50;3.20;;;;;;;32.55;29.43;95998.00;4937897;29;20292;-85
2022/05/20 11:14:59;;;;;;;5.13;3.35;;;;;;;32.56;29.13;95991.56;4938067;29;20228;-84
2022/05/20 11:17:42;;;;;;;4.30;3.20;;;;;;;32.57;30.57;95982.47;4937891;29;20209;-84
2022/05/20 11:20:22;;;;;;;4.47;2.97;;;;;;;32.70;28.96;95986.16;4937119;29;20312;-84
2022/05/20 11:23:06;;;;;;;3.20;2.70;;;;;;;32.63;28.14;95982.34;4937901;29;20241;-85
2022/05/20 11:26:00;;;;;;;3.88;3.05;;;;;;;32.71;29.00;95985.06;4938681;29;20649;-86
2022/05/20 11:28:51;;;;;;;5.22;3.10;;;;;;;32.45;28.58;95973.47;4937424;28;20292;-83
2022/05/20 11:31:31;;;;;;;5.22;3.20;;;;;;;32.64;29.43;95965.25;4937074;29;20253;-85
2022/05/20 11:34:15;;;;;;;4.57;2.90;;;;;;;32.68;28.18;95956.34;4938125;29;20205;-84
2022/05/20 11:37:10;;;;;;;3.33;3.03;;;;;;;32.69;28.96;95951.78;4937488;29;20264;-84
2022/05/20 11:39:59;;;;;;;2.90;2.70;;;;;;;32.83;28.48;95947.94;4936607;28;20959;-85
2022/05/20 11:42:42;;;;;;;3.05;2.78;;;;;;;32.98;28.20;95944.06;4936873;29;20236;-84
2022/05/20 11:45:20;;;;;;;4.47;3.10;;;;;;;33.01;29.27;95948.78;4937361;29;20205;-85
2022/05/20 11:48:19;;;;;;;6.13;2.90;;;;;;;32.99;29.08;95948.28;4936438;28;20268;-86
2022/05/20 11:51:04;;;;;;;3.08;2.78;;;;;;;32.97;29.42;95947.81;4936826;29;20240;-85
2022/05/20 11:53:41;;;;;;;3.65;3.17;;;;;;;33.09;29.44;95950.69;4937003;29;20581;-84
2022/05/20 11:56:16;;;;;;;5.15;3.10;;;;;;;33.18;28.55;95940.00;4936928;29;20209;-83
2022/05/20 11:58:49;;;;;;;4.22;2.95;;;;;;;33.26;29.06;95926.72;4937519;28;20256;-86
2022/05/20 12:01:19;;;;;;;3.15;2.80;;;;;;;33.37;28.58;95940.53;4937622;29;20604;-84
2022/05/20 12:06:30;;;;;;;3.30;2.85;;;;;;;33.14;27.91;95921.16;4935158;29;20704;-85
2022/05/20 12:08:59;;;;;;;7.88;3.05;;;;;;;33.19;28.23;95920.22;4936872;28;20241;-85
2022/05/20 12:11:29;;;;;;;5.93;2.70;;;;;;;33.16;28.23;95918.97;4936384;29;20212;-85
2022/05/20 12:14:06;;;;;;;5.32;3.00;;;;;;;33.00;27.34;95912.50;4937687;29;20209;-85
2022/05/20 12:16:53;;;;;;;4.60;2.80;;;;;;;32.87;27.99;95914.22;4938041;29;20554;-85
2022/05/20 12:24:53;;;;;;;4.65;3.13;;;;;;;32.71;28.30;95897.06;4937455;29;20204;-85
2022/05/20 12:27:40;;;;;;;4.10;2.90;;;;;;;32.83;27.85;95899.94;4937562;29;20209;-83
2022/05/20 12:30:27;;;;;;;4.30;3.17;;;;;;;32.93;27.83;95886.28;4936988;29;20664;-84
2022/05/20 12:32:55;;;;;;;5.90;3.08;;;;;;;32.92;27.92;95898.03;4937758;29;20237;-84
2022/05/20 12:35:31;;;;;;;4.88;2.97;;;;;;;33.13;27.58;95876.88;4937060;29;20237;-84
2022/05/20 12:38:13;;;;;;;7.28;3.15;;;;;;;33.21;29.02;95872.66;4936192;28;20208;-85
2022/05/20 12:40:50;;;;;;;3.47;2.83;;;;;;;33.27;28.13;95858.88;4936871;29;20261;-85
2022/05/20 12:43:17;;;;;;;4.60;2.80;;;;;;;33.15;28.09;95860.56;4938321;29;20232;-85
2022/05/20 12:45:50;;;;;;;4.57;3.05;;;;;;;33.22;27.57;95864.34;4938281;29;20209;-85
2022/05/20 12:48:22;;;;;;;5.40;2.83;;;;;;;33.44;27.90;95862.63;4937299;28;20217;-84
2022/05/20 12:50:59;;;;;;;6.05;3.05;;;;;;;33.61;27.80;95846.59;4937998;29;20656;-85
2022/05/20 12:53:29;;;;;;;4.20;3.10;;;;;;;33.68;28.10;95854.13;4936173;29;20229;-85
2022/05/20 12:55:56;;;;;;;3.92;3.08;;;;;;;33.71;27.43;95840.13;4937064;29;20198;-85
2022/05/20 12:58:25;;;;;;;7.13;3.40;;;;;;;33.76;27.20;95838.06;4936280;28;20311;-83
2022/05/20 13:00:54;;;;;;;4.10;2.97;;;;;;;33.63;27.41;95836.38;4936329;29;20233;-84
2022/05/20 13:03:25;;;;;;;3.47;3.10;;;;;;;33.74;28.85;95837.59;4936265;29;20946;-85
2022/05/20 13:05:54;;;;;;;3.13;2.70;;;;;;;33.61;28.00;95830.56;4938115;29;20201;-86
2022/05/20 13:08:25;;;;;;;5.13;3.30;;;;;;;33.71;28.57;95830.22;4936449;28;20312;-85
2022/05/20 13:10:52;;;;;;;4.68;2.90;;;;;;;33.74;27.44;95826.13;4935911;29;20229;-85
2022/05/20 13:13:22;;;;;;;3.75;3.25;;;;;;;33.85;28.88;95814.03;4936559;29;20725;-84
2022/05/20 13:15:50;;;;;;;3.17;2.90;;;;;;;33.56;26.73;95815.50;4936363;29;20216;-85
2022/05/20 13:18:19;;;;;;;4.07;3.30;;;;;;;33.41;26.78;95809.88;4936162;28;20229;-84
2022/05/20 13:20:49;;;;;;;4.10;3.20;;;;;;;33.46;27.51;95810.50;4936185;29;20225;-84
2022/05/20 13:23:20;;;;;;;3.67;2.88;;;;;;;33.36;26.38;95802.78;4936478;29;20225;-85
2022/05/20 13:25:47;;;;;;;4.70;3.20;;;;;;;33.44;26.33;95794.00;4935186;29;20216;-85
2022/05/20 13:28:22;;;;;;;5.55;2.92;;;;;;;33.49;26.76;95787.69;4935346;28;20230;-85
2022/05/20 13:30:49;;;;;;;2.92;2.53;;;;;;;33.53;26.36;95772.59;4935199;29;20323;-85
2022/05/20 13:33:15;;;;;;;3.60;3.08;;;;;;;33.54;26.59;95769.63;4936083;29;20205;-85